createdAt,value
2022-09-05T00:00:39.098Z,59.67
2022-09-05T00:06:10.112Z,59.95
2022-09-05T00:11:51.896Z,59.65
2022-09-05T00:18:37.706Z,59.63
2022-09-05T00:24:26.079Z,59.35
2022-09-05T00:29:07.379Z,59.33
2022-09-05T00:35:06.799Z,59.04
2022-09-05T00:40:43.000Z,59.26
2022-09-05T00:46:12.905Z,59.17
2022-09-05T00:51:44.611Z,59.29
2022-09-05T00:57:42.770Z,59.23
2022-09-05T01:03:26.266Z,59.27
2022-09-05T01:08:47.217Z,59.38
2022-09-05T01:14:12.755Z,59.41
2022-09-05T01:19:51.954Z,59.68
2022-09-05T01:25:33.790Z,59.66
2022-09-05T01:31:18.436Z,59.84
2022-09-05T01:36:51.221Z,60.11
2022-09-05T01:42:37.081Z,60.02
2022-09-05T01:47:57.153Z,60.14
2022-09-05T01:53:39.139Z,60.04
2022-09-05T01:59:23.450Z,60.01
2022-09-05T02:05:14.151Z,60.15
2022-09-05T02:10:40.819Z,60.02
2022-09-05T02:16:28.772Z,60.10
2022-09-05T02:22:06.384Z,59.91
2022-09-05T02:28:04.485Z,60.02
2022-09-05T02:33:29.370Z,59.85
2022-09-05T02:42:43.496Z,59.91
2022-09-05T02:45:30.150Z,59.87
2022-09-05T02:57:29.509Z,60.06
2022-09-05T02:57:33.188Z,59.98
2022-09-05T03:03:20.547Z,59.89
2022-09-05T03:09:09.719Z,59.94
2022-09-05T03:15:18.777Z,59.95
2022-09-05T03:20:54.917Z,59.85
2022-09-05T03:27:20.655Z,59.90
2022-09-05T03:33:05.778Z,59.78
2022-09-05T03:38:47.073Z,59.99
2022-09-05T03:44:44.586Z,60.09
2022-09-05T03:55:12.164Z,60.26
2022-09-05T03:57:27.637Z,60.25
2022-09-05T04:05:10.938Z,60.01
2022-09-05T04:08:18.633Z,60.02
2022-09-05T04:13:55.342Z,59.94
2022-09-05T04:19:27.627Z,60.16
2022-09-05T04:24:54.046Z,60.26
2022-09-05T04:30:38.467Z,60.23
2022-09-05T04:36:18.633Z,60.59
2022-09-05T04:41:43.047Z,60.43
2022-09-05T04:47:15.748Z,60.46
2022-09-05T04:53:04.772Z,60.55
2022-09-05T04:59:34.286Z,60.75
2022-09-05T05:06:14.075Z,60.96
2022-09-05T05:15:43.912Z,60.97
2022-09-05T05:18:08.631Z,61.16
2022-09-05T05:21:45.913Z,61.34
2022-09-05T05:27:16.560Z,61.40
2022-09-05T05:32:46.374Z,61.41
2022-09-05T05:38:34.238Z,61.35
2022-09-05T05:43:54.632Z,61.47
2022-09-05T05:49:44.470Z,61.57
2022-09-05T05:55:48.962Z,61.47
2022-09-05T06:01:09.395Z,61.47
2022-09-05T06:07:25.587Z,61.70
2022-09-05T06:14:57.750Z,61.49
2022-09-05T06:19:11.829Z,61.77
2022-09-05T06:25:16.447Z,61.91
2022-09-05T06:31:29.758Z,61.77
2022-09-05T06:36:52.987Z,61.84
2022-09-05T06:42:42.342Z,61.48
2022-09-05T06:48:27.866Z,61.29
2022-09-05T06:54:16.317Z,61.06
2022-09-05T06:59:58.258Z,61.21
2022-09-05T07:05:39.421Z,60.92
2022-09-05T07:11:17.323Z,60.88
2022-09-05T07:16:47.829Z,60.82
2022-09-05T07:22:18.514Z,60.90
2022-09-05T07:28:29.222Z,60.40
2022-09-05T07:34:04.818Z,60.42
2022-09-05T07:39:48.002Z,60.33
2022-09-05T07:45:13.837Z,60.43
2022-09-05T07:56:46.135Z,60.54
2022-09-05T08:02:46.965Z,60.41
2022-09-05T08:08:14.420Z,60.17
2022-09-05T08:13:57.828Z,60.00
2022-09-05T08:19:41.522Z,59.88
2022-09-05T08:25:36.332Z,59.75
2022-09-05T08:31:21.654Z,59.69
2022-09-05T08:36:49.105Z,59.33
2022-09-05T08:42:21.750Z,59.19
2022-09-05T08:47:45.192Z,59.00
2022-09-05T08:53:18.610Z,58.56
2022-09-05T08:59:32.394Z,58.34
2022-09-05T09:05:14.533Z,58.29
2022-09-05T09:10:55.085Z,58.09
2022-09-05T09:16:58.871Z,57.65
2022-09-05T09:22:51.513Z,57.26
2022-09-05T09:28:49.044Z,57.05
2022-09-05T09:34:26.874Z,56.45
2022-09-05T09:40:23.783Z,56.42
2022-09-05T09:45:59.287Z,55.83
2022-09-05T09:51:40.303Z,55.66
2022-09-05T09:57:06.152Z,54.84
2022-09-05T10:06:43.761Z,54.74
2022-09-05T10:11:20.811Z,54.65
2022-09-05T10:14:47.842Z,54.15
2022-09-05T10:20:29.312Z,53.89
2022-09-05T10:26:24.674Z,53.85
2022-09-05T10:35:02.880Z,53.19
2022-09-05T10:37:42.262Z,52.49
2022-09-05T10:43:13.488Z,52.71
2022-09-05T10:48:53.060Z,52.35
2022-09-05T10:54:50.594Z,51.35
2022-09-05T11:02:27.454Z,51.25
2022-09-05T11:06:52.740Z,51.32
2022-09-05T11:12:34.128Z,51.23
2022-09-05T11:18:02.669Z,50.97
2022-09-05T11:23:35.050Z,50.71
2022-09-05T11:29:05.722Z,49.92
2022-09-05T11:39:53.714Z,49.86
2022-09-05T11:41:08.498Z,49.50
2022-09-05T11:46:32.271Z,48.87
2022-09-05T11:52:07.775Z,48.80
2022-09-05T11:57:50.044Z,48.19
2022-09-05T12:03:56.924Z,47.35
2022-09-05T12:09:25.937Z,46.99
2022-09-05T12:14:58.656Z,46.54
2022-09-05T12:20:32.717Z,45.23
2022-09-05T12:27:38.203Z,45.10
2022-09-05T12:33:45.568Z,45.72
2022-09-05T12:40:15.733Z,45.58
2022-09-05T12:44:41.793Z,44.98
2022-09-05T12:50:03.577Z,44.23
2022-09-05T12:55:46.996Z,43.16
2022-09-05T13:03:14.439Z,43.09
2022-09-05T13:07:34.665Z,42.94
2022-09-05T13:14:54.435Z,43.24
2022-09-05T13:18:44.433Z,43.09
2022-09-05T13:24:12.447Z,42.70
2022-09-05T13:31:01.357Z,41.45
2022-09-05T13:38:02.657Z,41.32
2022-09-05T13:41:37.809Z,41.42
2022-09-05T13:47:30.942Z,41.38
2022-09-05T13:53:05.202Z,41.06
2022-09-05T13:58:51.011Z,40.89
2022-09-05T14:10:48.123Z,40.47
2022-09-05T14:16:16.784Z,40.19
2022-09-05T14:21:41.013Z,40.06
2022-09-05T14:27:03.284Z,39.94
2022-09-05T14:37:54.786Z,39.97
2022-09-05T14:38:07.835Z,40.27
2022-09-05T14:43:31.306Z,40.08
2022-09-05T14:49:02.765Z,40.46
2022-09-05T15:02:50.438Z,40.74
2022-09-05T15:05:13.787Z,40.96
2022-09-05T15:12:14.113Z,41.02
2022-09-05T15:15:46.247Z,41.30
2022-09-05T15:21:38.750Z,41.41
2022-09-05T15:26:56.196Z,41.50
2022-09-05T15:32:24.172Z,41.80
2022-09-05T15:37:31.643Z,42.15
2022-09-05T15:42:38.120Z,42.41
2022-09-05T15:47:47.391Z,42.72
2022-09-05T15:52:55.411Z,43.06
2022-09-05T15:58:07.540Z,43.42
2022-09-05T16:04:22.352Z,43.89
2022-09-05T16:10:49.437Z,44.28
2022-09-05T16:14:39.603Z,44.31
2022-09-05T16:23:23.592Z,44.37
2022-09-05T16:25:22.715Z,44.85
2022-09-05T16:30:37.894Z,44.84
2022-09-05T16:36:07.633Z,45.11
2022-09-05T16:41:19.981Z,44.91
2022-09-05T16:46:34.138Z,44.84
2022-09-05T16:52:06.754Z,44.64
2022-09-05T16:57:17.001Z,44.75
2022-09-05T17:02:33.074Z,44.83
2022-09-05T17:07:42.228Z,44.87
2022-09-05T17:12:46.223Z,44.78
2022-09-05T17:18:21.938Z,45.00
2022-09-05T17:27:19.956Z,44.96
2022-09-05T17:29:29.831Z,44.92
2022-09-05T17:34:16.465Z,45.25
2022-09-05T17:39:45.402Z,45.57
2022-09-05T17:44:48.728Z,45.73
2022-09-05T17:50:40.636Z,45.82
2022-09-05T17:55:43.418Z,46.04
2022-09-05T18:00:49.549Z,46.24
2022-09-05T18:06:04.037Z,46.38
2022-09-05T18:11:14.457Z,46.62
2022-09-05T18:16:48.315Z,46.90
2022-09-05T18:22:11.257Z,47.01
2022-09-05T18:33:54.432Z,47.06
2022-09-05T18:38:51.050Z,46.97
2022-09-05T18:44:20.373Z,47.13
2022-09-05T18:50:22.220Z,47.22
2022-09-05T18:56:11.346Z,46.85
2022-09-05T19:00:46.703Z,46.51
2022-09-05T19:06:36.384Z,46.51
2022-09-05T19:11:53.278Z,46.28
2022-09-05T19:17:09.203Z,46.05
2022-09-05T19:23:01.851Z,45.72
2022-09-05T19:28:59.996Z,45.34
2022-09-05T19:36:58.282Z,45.05
2022-09-05T19:39:34.636Z,44.87
2022-09-05T19:47:44.521Z,44.46
2022-09-05T19:49:21.378Z,44.23
2022-09-05T19:54:36.323Z,44.21
2022-09-05T19:59:42.021Z,44.19
2022-09-05T20:04:53.077Z,44.11
2022-09-05T20:09:58.181Z,44.14
2022-09-05T20:15:23.005Z,44.13
2022-09-05T20:20:30.705Z,44.18
2022-09-05T20:25:53.358Z,44.15
2022-09-05T20:31:02.176Z,44.19
2022-09-05T20:43:08.667Z,44.30
2022-09-05T20:43:24.763Z,44.32
2022-09-05T20:51:33.272Z,44.15
2022-09-05T20:54:24.431Z,43.83
2022-09-05T20:58:24.774Z,43.70
2022-09-05T21:03:45.293Z,43.64
2022-09-05T21:08:56.057Z,43.59
2022-09-05T21:14:04.560Z,43.50
2022-09-05T21:19:22.117Z,43.66
2022-09-05T21:24:25.003Z,43.65
2022-09-05T21:29:32.680Z,43.59
2022-09-05T21:34:44.948Z,43.49
2022-09-05T21:39:58.290Z,43.46
2022-09-05T21:47:37.715Z,43.49
2022-09-05T21:50:31.526Z,43.47
2022-09-05T21:59:18.832Z,43.42
2022-09-05T22:00:58.243Z,43.35
2022-09-05T22:06:04.198Z,43.51
2022-09-05T22:11:12.744Z,43.37
2022-09-05T22:16:15.894Z,43.47
2022-09-05T22:21:32.975Z,43.43
2022-09-05T22:26:44.779Z,43.31
2022-09-05T22:32:05.801Z,43.31
2022-09-05T22:37:08.613Z,43.37
2022-09-05T22:42:12.221Z,43.50
2022-09-05T22:47:15.158Z,43.52
2022-09-05T22:52:17.977Z,43.45
2022-09-05T22:57:20.766Z,43.62
2022-09-05T23:02:23.707Z,43.69
2022-09-05T23:07:26.846Z,43.55
2022-09-05T23:12:29.753Z,43.65
2022-09-05T23:17:32.631Z,43.88
2022-09-05T23:22:36.456Z,43.85
2022-09-05T23:27:39.606Z,43.97
2022-09-05T23:32:47.535Z,44.19
2022-09-05T23:37:50.663Z,44.17
2022-09-05T23:42:59.001Z,44.26
2022-09-05T23:48:02.386Z,44.19
2022-09-05T23:53:05.423Z,44.22
2022-09-05T23:58:08.867Z,44.61
